Time;durP1;ratioP1;P1;durP2;ratioP2;P2;SDS_P1;SDS_P2;PMS_P1;PMS_P2;Temp;Humidity;BMP_temperature;BMP_pressure;BME280_temperature;BME280_humidity;BME280_pressure;Samples;Min_cycle;Max_cycle;Signal;HPM_P1;HPM_P2
2022/08/31 00:06:21;;;;;;;3.40;2.80;;;23.70;71.00;;;;;;5031863;28;20631;-70
2022/08/31 00:08:47;;;;;;;3.75;3.17;;;23.70;71.00;;;;;;5031176;28;20183;-70
2022/08/31 00:11:15;;;;;;;3.97;3.67;;;23.70;71.00;;;;;;5015341;28;20171;-70
2022/08/31 00:13:42;;;;;;;3.45;3.05;;;23.70;70.90;;;;;;5033339;28;20681;-70
2022/08/31 00:16:11;;;;;;;3.25;2.95;;;23.70;71.70;;;;;;5015092;28;20183;-70
2022/08/31 00:18:37;;;;;;;3.30;3.00;;;23.70;71.00;;;;;;5031322;28;20868;-70
2022/08/31 00:21:03;;;;;;;3.58;3.28;;;23.70;71.00;;;;;;5015170;28;20198;-70
2022/08/31 00:23:30;;;;;;;3.35;3.05;;;23.70;71.00;;;;;;5032663;28;20183;-70
2022/08/31 00:25:56;;;;;;;3.58;3.28;;;23.70;71.00;;;;;;5031856;28;20527;-70
2022/08/31 00:28:21;;;;;;;3.08;2.88;;;23.70;71.00;;;;;;5032198;28;20245;-70
2022/08/31 00:30:48;;;;;;;4.43;2.80;;;23.70;71.00;;;;;;5031258;28;20238;-70
2022/08/31 00:33:14;;;;;;;3.33;3.00;;;23.70;71.00;;;;;;5031570;28;20183;-70
2022/08/31 00:35:41;;;;;;;3.17;2.80;;;23.70;71.00;;;;;;5014932;28;20186;-70
2022/08/31 00:38:09;;;;;;;3.75;3.03;;;23.70;71.00;;;;;;5030989;28;20191;-70
2022/08/31 00:40:35;;;;;;;3.67;3.33;;;23.70;71.00;;;;;;5048193;28;20202;-70
2022/08/31 00:43:02;;;;;;;3.67;3.38;;;23.70;71.20;;;;;;5014917;28;20622;-70
2022/08/31 00:45:29;;;;;;;3.30;3.00;;;23.70;71.20;;;;;;5014823;28;20183;-70
2022/08/31 00:47:54;;;;;;;3.63;3.33;;;23.70;71.20;;;;;;5030684;28;20679;-70
2022/08/31 00:50:23;;;;;;;3.35;3.05;;;23.70;71.20;;;;;;5031132;28;20209;-70
2022/08/31 00:52:59;;;;;;;3.33;3.10;;;23.70;71.20;;;;;;5014807;28;20195;-70
2022/08/31 00:55:35;;;;;;;3.53;3.22;;;23.70;71.20;;;;;;5031243;28;20333;-70
2022/08/31 00:58:08;;;;;;;3.75;3.08;;;23.70;71.30;;;;;;5030560;28;20269;-69
2022/08/31 01:00:34;;;;;;;4.03;3.50;;;23.70;71.20;;;;;;5014733;28;20210;-70
2022/08/31 01:03:04;;;;;;;3.38;3.08;;;23.70;71.20;;;;;;5014028;28;20244;-70
2022/08/31 01:05:31;;;;;;;3.45;3.17;;;23.60;71.10;;;;;;5047415;28;20245;-70
2022/08/31 01:07:59;;;;;;;3.50;3.20;;;23.70;71.30;;;;;;5030657;28;20263;-70
2022/08/31 01:10:30;;;;;;;3.22;2.92;;;23.70;71.30;;;;;;5031241;28;20196;-70
2022/08/31 01:12:58;;;;;;;3.17;2.95;;;23.70;71.30;;;;;;5047891;28;20176;-70
2022/08/31 01:15:26;;;;;;;3.42;3.15;;;23.60;71.30;;;;;;5030898;28;20175;-70
2022/08/31 01:17:56;;;;;;;3.38;3.15;;;23.70;71.30;;;;;;5030340;28;20281;-69
2022/08/31 01:20:33;;;;;;;3.75;3.45;;;23.70;71.50;;;;;;5030932;28;20199;-70
2022/08/31 01:23:26;;;;;;;3.35;3.15;;;23.70;71.50;;;;;;5030814;28;20294;-70
2022/08/31 01:25:55;;;;;;;3.70;3.40;;;23.70;71.50;;;;;;5014637;28;20314;-70
2022/08/31 01:28:21;;;;;;;3.72;3.42;;;23.60;71.40;;;;;;5028925;28;20250;-70
2022/08/31 01:31:09;;;;;;;3.75;3.35;;;23.70;71.60;;;;;;5018141;28;20289;-70
2022/08/31 01:33:39;;;;;;;3.60;3.30;;;23.60;71.40;;;;;;5014732;28;20694;-70
2022/08/31 01:36:07;;;;;;;3.88;3.58;;;23.60;71.40;;;;;;5031962;28;20179;-70
2022/08/31 01:38:34;;;;;;;3.95;3.28;;;23.60;71.40;;;;;;5030117;28;20318;-70
2022/08/31 01:41:02;;;;;;;3.80;3.50;;;23.60;71.50;;;;;;5031024;28;20241;-70
2022/08/31 01:43:35;;;;;;;3.55;3.25;;;23.60;71.40;;;;;;5030697;28;20194;-70
2022/08/31 01:46:08;;;;;;;3.67;3.38;;;23.60;71.50;;;;;;5030335;28;20298;-70
2022/08/31 01:48:39;;;;;;;3.90;3.60;;;23.60;71.60;;;;;;5030200;28;20215;-70
2022/08/31 01:51:06;;;;;;;3.90;3.45;;;23.60;71.60;;;;;;5030655;28;20176;-70
2022/08/31 01:53:33;;;;;;;3.55;3.25;;;23.60;71.70;;;;;;5030477;28;20176;-70
2022/08/31 01:55:59;;;;;;;3.80;3.50;;;23.60;71.70;;;;;;5030911;28;20228;-70
2022/08/31 01:58:25;;;;;;;3.83;3.50;;;23.70;71.80;;;;;;5030449;28;20248;-70
2022/08/31 02:01:15;;;;;;;3.78;3.47;;;23.60;71.70;;;;;;5021398;28;20195;-70
2022/08/31 02:03:41;;;;;;;4.25;3.95;;;23.60;71.80;;;;;;5047274;28;20187;-70
2022/08/31 02:06:12;;;;;;;4.03;3.60;;;23.60;71.80;;;;;;5030471;28;20187;-70
2022/08/31 02:08:39;;;;;;;3.60;3.30;;;23.60;71.60;;;;;;5024122;28;20282;-70
2022/08/31 02:11:06;;;;;;;3.85;3.55;;;23.60;71.70;;;;;;5030578;28;20266;-70
2022/08/31 02:13:34;;;;;;;3.33;3.13;;;23.60;71.70;;;;;;5030399;28;20183;-70
2022/08/31 02:16:01;;;;;;;3.55;3.25;;;23.60;72.00;;;;;;5032431;28;20186;-70
2022/08/31 02:18:27;;;;;;;3.88;3.58;;;23.60;72.00;;;;;;5016964;28;20187;-70
2022/08/31 02:20:54;;;;;;;3.47;3.17;;;23.60;72.10;;;;;;5033895;28;20207;-70
2022/08/31 02:23:20;;;;;;;3.47;3.17;;;23.60;72.10;;;;;;5033820;28;20175;-71
2022/08/31 02:25:46;;;;;;;3.90;3.58;;;23.60;72.10;;;;;;5033814;28;20189;-71
2022/08/31 02:28:12;;;;;;;3.58;3.28;;;23.60;72.20;;;;;;5033205;28;20227;-70
2022/08/31 02:30:40;;;;;;;3.40;3.20;;;23.60;72.20;;;;;;5017122;28;20231;-70
2022/08/31 02:33:09;;;;;;;4.00;3.60;;;23.60;72.20;;;;;;5033596;28;20199;-70
2022/08/31 02:35:37;;;;;;;3.47;3.17;;;23.60;72.20;;;;;;5033658;28;20217;-70
2022/08/31 02:38:05;;;;;;;3.60;3.30;;;23.60;72.10;;;;;;5033283;28;20217;-70
2022/08/31 02:40:32;;;;;;;3.17;2.97;;;23.60;72.10;;;;;;5017041;28;20230;-70
2022/08/31 02:42:58;;;;;;;3.72;3.42;;;23.60;72.20;;;;;;5033495;28;20191;-70
2022/08/31 02:45:25;;;;;;;3.97;3.67;;;23.60;72.20;;;;;;5049835;28;20221;-70
2022/08/31 02:47:56;;;;;;;3.97;3.67;;;23.60;72.10;;;;;;5033151;28;20211;-70
2022/08/31 02:50:27;;;;;;;3.78;3.47;;;23.60;72.20;;;;;;5017494;28;20227;-70
2022/08/31 02:52:55;;;;;;;3.50;3.28;;;23.60;72.20;;;;;;5033366;28;20211;-70
2022/08/31 02:55:25;;;;;;;3.42;3.22;;;23.60;72.10;;;;;;5033206;28;20179;-70
2022/08/31 02:57:52;;;;;;;3.90;3.60;;;23.60;72.10;;;;;;5032918;28;20243;-70
2022/08/31 03:00:22;;;;;;;3.30;3.10;;;23.60;72.10;;;;;;5033071;28;20203;-70
2022/08/31 03:02:48;;;;;;;3.33;3.10;;;23.60;72.10;;;;;;5034370;28;20198;-70
2022/08/31 03:05:14;;;;;;;3.60;3.30;;;23.60;72.20;;;;;;5033179;28;20215;-70
2022/08/31 03:07:40;;;;;;;3.60;3.30;;;23.60;72.20;;;;;;5032490;28;20239;-70
2022/08/31 03:10:10;;;;;;;3.10;2.90;;;23.60;72.20;;;;;;5032888;28;20199;-70
2022/08/31 03:12:37;;;;;;;3.50;3.20;;;23.60;72.20;;;;;;5049763;28;20258;-70
2022/08/31 03:15:06;;;;;;;3.33;3.10;;;23.60;72.20;;;;;;5032861;28;20179;-70
2022/08/31 03:17:33;;;;;;;3.83;3.53;;;23.60;73.10;;;;;;5033607;28;20195;-70
2022/08/31 03:20:01;;;;;;;3.13;2.90;;;23.60;72.20;;;;;;5016534;28;20226;-70
2022/08/31 03:22:28;;;;;;;3.53;3.22;;;23.60;72.20;;;;;;5033066;28;20464;-70
2022/08/31 03:24:55;;;;;;;4.50;3.17;;;23.60;72.30;;;;;;5049547;28;20187;-70
2022/08/31 03:27:23;;;;;;;3.47;3.17;;;23.60;73.10;;;;;;5031557;28;20247;-70
2022/08/31 03:29:51;;;;;;;3.28;3.08;;;23.60;72.30;;;;;;5016185;28;20210;-70
2022/08/31 03:32:21;;;;;;;3.40;3.20;;;23.60;72.40;;;;;;5041307;28;20247;-69
2022/08/31 03:34:55;;;;;;;3.40;3.10;;;23.60;72.30;;;;;;5031065;28;20302;-70
2022/08/31 03:37:21;;;;;;;3.92;3.53;;;23.60;72.30;;;;;;5031928;28;20183;-70
2022/08/31 03:39:48;;;;;;;3.28;3.08;;;23.60;72.30;;;;;;5032499;28;20205;-70
2022/08/31 03:42:14;;;;;;;3.78;3.47;;;23.60;72.20;;;;;;5032510;28;20184;-70
2022/08/31 03:44:40;;;;;;;3.50;3.25;;;23.60;72.30;;;;;;5032426;28;20187;-70
2022/08/31 03:47:10;;;;;;;3.70;3.40;;;23.60;72.30;;;;;;5031408;28;20230;-70
2022/08/31 03:49:36;;;;;;;3.65;3.35;;;23.60;72.30;;;;;;5015738;28;20211;-70
2022/08/31 03:52:17;;;;;;;3.60;3.30;;;23.60;72.30;;;;;;5034683;28;20231;-70
2022/08/31 03:54:47;;;;;;;3.47;3.28;;;23.60;72.40;;;;;;5032199;28;20176;-69
2022/08/31 03:57:13;;;;;;;3.10;2.90;;;23.60;72.40;;;;;;5031687;28;20187;-69
2022/08/31 03:59:39;;;;;;;3.17;2.97;;;23.60;72.40;;;;;;5029192;28;20254;-70
2022/08/31 04:02:31;;;;;;;3.45;3.17;;;23.60;72.30;;;;;;5024909;28;20184;-70
2022/08/31 04:05:16;;;;;;;3.17;2.97;;;23.60;72.40;;;;;;5033288;28;20182;-70
2022/08/31 04:08:01;;;;;;;3.35;3.15;;;23.60;72.30;;;;;;5032818;28;20586;-70
2022/08/31 04:10:49;;;;;;;3.40;3.10;;;23.60;72.30;;;;;;5033422;28;20223;-70
2022/08/31 04:13:35;;;;;;;3.55;3.25;;;23.60;72.40;;;;;;5033527;28;20172;-70
2022/08/31 04:16:35;;;;;;;3.05;2.85;;;23.60;72.30;;;;;;5032745;28;20195;-69
2022/08/31 04:19:05;;;;;;;3.35;3.05;;;23.60;72.40;;;;;;5032535;28;20218;-70
2022/08/31 04:21:35;;;;;;;3.47;3.17;;;23.60;72.30;;;;;;5032288;28;20210;-70
2022/08/31 04:24:02;;;;;;;3.78;3.47;;;23.60;72.30;;;;;;5031848;28;20215;-70
2022/08/31 04:26:33;;;;;;;3.30;3.00;;;23.60;72.30;;;;;;5015230;28;20214;-70
2022/08/31 04:29:00;;;;;;;3.40;3.10;;;23.60;73.10;;;;;;5031291;28;20265;-69
2022/08/31 04:31:27;;;;;;;4.03;3.00;;;23.60;72.40;;;;;;5030270;28;20171;-70
2022/08/31 04:33:55;;;;;;;3.08;2.88;;;23.60;72.40;;;;;;5031712;28;20275;-70
2022/08/31 04:36:25;;;;;;;3.20;3.00;;;23.60;72.50;;;;;;5031702;28;20226;-70
2022/08/31 04:38:58;;;;;;;3.30;3.00;;;23.60;72.50;;;;;;5030574;28;20290;-70
2022/08/31 04:41:27;;;;;;;3.40;3.15;;;23.60;72.60;;;;;;5015355;28;20180;-70
2022/08/31 04:43:58;;;;;;;3.33;3.00;;;23.60;72.70;;;;;;5031287;28;20203;-70
2022/08/31 04:46:26;;;;;;;3.38;3.15;;;23.60;72.80;;;;;;5014940;28;20205;-69
2022/08/31 04:48:55;;;;;;;3.60;3.30;;;23.60;72.80;;;;;;5030707;28;20253;-70
2022/08/31 04:51:29;;;;;;;3.45;3.15;;;23.60;72.80;;;;;;5031328;28;20183;-70
2022/08/31 04:53:56;;;;;;;3.72;3.38;;;23.60;72.80;;;;;;5015058;28;20195;-70
2022/08/31 04:56:30;;;;;;;3.20;3.00;;;23.60;72.80;;;;;;5031050;28;20177;-70
2022/08/31 04:59:07;;;;;;;3.67;3.38;;;23.60;72.80;;;;;;5047381;28;20211;-70
2022/08/31 05:01:44;;;;;;;3.63;3.33;;;23.60;72.80;;;;;;5015710;28;20175;-70
2022/08/31 05:04:42;;;;;;;3.78;3.47;;;23.60;72.80;;;;;;5020273;28;20191;-70
2022/08/31 05:07:07;;;;;;;3.33;3.13;;;23.60;72.90;;;;;;5031025;28;20219;-70
2022/08/31 05:09:34;;;;;;;3.40;3.10;;;23.60;72.80;;;;;;5030455;28;20227;-70
2022/08/31 05:12:00;;;;;;;4.20;3.63;;;23.50;72.70;;;;;;5014888;28;20175;-71
2022/08/31 05:14:27;;;;;;;3.55;3.25;;;23.60;72.80;;;;;;5030873;28;20321;-69
2022/08/31 05:17:00;;;;;;;3.15;2.95;;;23.50;72.80;;;;;;5031920;28;20171;-70
2022/08/31 05:19:27;;;;;;;3.30;3.10;;;23.60;72.90;;;;;;5030500;28;20296;-70
2022/08/31 05:21:52;;;;;;;3.25;3.03;;;23.60;72.90;;;;;;5032240;28;20213;-69
2022/08/31 05:24:21;;;;;;;3.45;3.08;;;23.60;73.00;;;;;;5030716;28;20198;-70
2022/08/31 05:26:52;;;;;;;3.53;3.22;;;23.60;73.00;;;;;;5032061;28;20202;-70
2022/08/31 05:29:23;;;;;;;3.10;2.90;;;23.60;72.90;;;;;;5030037;28;20203;-69
2022/08/31 05:31:56;;;;;;;3.53;3.22;;;23.60;72.90;;;;;;5030681;28;20621;-70
2022/08/31 05:34:22;;;;;;;3.45;3.15;;;23.50;72.80;;;;;;5030834;28;20191;-70
2022/08/31 05:36:53;;;;;;;3.45;3.15;;;23.50;72.80;;;;;;5031020;28;20234;-70
2022/08/31 05:39:19;;;;;;;3.13;2.92;;;23.60;72.90;;;;;;5030183;28;20252;-70
2022/08/31 05:41:47;;;;;;;3.53;3.22;;;23.60;72.90;;;;;;5014398;28;20179;-70
2022/08/31 05:44:14;;;;;;;3.42;3.15;;;23.50;73.00;;;;;;5030776;28;20220;-69
2022/08/31 05:46:42;;;;;;;2.92;2.72;;;23.50;73.00;;;;;;5030249;28;20183;-69
2022/08/31 05:49:09;;;;;;;3.72;3.42;;;23.50;73.10;;;;;;5030275;28;20216;-69
2022/08/31 05:51:35;;;;;;;3.60;3.30;;;23.50;73.10;;;;;;5034063;28;20184;-69
2022/08/31 05:54:02;;;;;;;3.35;2.90;;;23.50;73.10;;;;;;5018072;28;20175;-70
2022/08/31 05:56:31;;;;;;;3.38;3.08;;;23.50;73.10;;;;;;5034239;28;20184;-70
2022/08/31 05:58:58;;;;;;;3.30;3.00;;;23.50;73.10;;;;;;5034002;28;20199;-69
2022/08/31 06:01:30;;;;;;;3.13;2.92;;;23.50;73.20;;;;;;5033947;28;20179;-69
2022/08/31 06:04:27;;;;;;;3.55;3.25;;;23.50;73.10;;;;;;5020539;28;20219;-69
2022/08/31 06:06:53;;;;;;;3.58;3.28;;;23.60;73.30;;;;;;4998327;28;20280;-70
2022/08/31 06:09:23;;;;;;;4.13;3.13;;;23.50;73.20;;;;;;5014054;28;20258;-70
2022/08/31 06:11:50;;;;;;;3.58;3.28;;;23.50;73.30;;;;;;5014386;28;20185;-70
2022/08/31 06:14:17;;;;;;;3.35;3.05;;;23.50;73.30;;;;;;4998025;28;20186;-70
2022/08/31 06:16:44;;;;;;;3.53;3.22;;;23.50;73.30;;;;;;5014066;28;20659;-70
2022/08/31 06:19:12;;;;;;;4.35;3.97;;;23.50;73.30;;;;;;5013899;28;20222;-70
2022/08/31 06:21:42;;;;;;;3.58;3.28;;;23.50;73.30;;;;;;5013992;28;20643;-70
2022/08/31 06:24:11;;;;;;;3.90;3.42;;;23.50;73.30;;;;;;5014195;28;20191;-70
2022/08/31 06:26:38;;;;;;;3.38;3.08;;;23.50;73.40;;;;;;4997970;28;20246;-70
2022/08/31 06:29:11;;;;;;;4.00;3.60;;;23.50;74.10;;;;;;5030059;28;20200;-70
2022/08/31 06:31:46;;;;;;;3.53;3.22;;;23.50;73.40;;;;;;5030271;28;20175;-70
2022/08/31 06:34:17;;;;;;;3.83;3.53;;;23.50;73.40;;;;;;5017516;28;20182;-70
2022/08/31 06:37:02;;;;;;;3.30;3.00;;;23.50;73.50;;;;;;5034992;28;20213;-70
2022/08/31 06:39:44;;;;;;;3.35;2.95;;;23.50;73.40;;;;;;5032777;28;20211;-70
2022/08/31 06:42:15;;;;;;;3.63;3.33;;;23.50;73.50;;;;;;5034313;28;20224;-70
2022/08/31 06:44:57;;;;;;;3.42;3.22;;;23.50;73.60;;;;;;5033901;28;20175;-70
2022/08/31 06:47:42;;;;;;;3.80;3.50;;;23.50;73.80;;;;;;5033234;28;20218;-69
2022/08/31 06:50:11;;;;;;;3.78;3.47;;;23.50;73.70;;;;;;5033558;28;20234;-70
2022/08/31 06:52:37;;;;;;;3.53;3.00;;;23.50;73.70;;;;;;5017056;28;20175;-70
2022/08/31 06:55:17;;;;;;;3.47;3.25;;;23.50;73.60;;;;;;5033290;28;20190;-69
2022/08/31 06:58:02;;;;;;;4.00;3.60;;;23.50;73.70;;;;;;5033223;28;20186;-69
2022/08/31 07:00:48;;;;;;;3.97;3.67;;;23.50;73.70;;;;;;5033397;28;20226;-69
2022/08/31 07:03:31;;;;;;;4.20;3.40;;;23.50;73.70;;;;;;5033233;28;20688;-69
2022/08/31 07:06:03;;;;;;;3.33;3.03;;;23.50;73.70;;;;;;5016944;28;20202;-69
2022/08/31 07:08:29;;;;;;;3.92;3.55;;;23.50;73.70;;;;;;5032395;28;20209;-69
2022/08/31 07:10:55;;;;;;;3.75;3.33;;;23.50;73.70;;;;;;5032742;28;20195;-69
2022/08/31 07:13:21;;;;;;;4.25;3.35;;;23.50;73.70;;;;;;5032942;28;20185;-69
2022/08/31 07:15:47;;;;;;;4.22;3.92;;;23.50;73.70;;;;;;5033080;28;20187;-69
2022/08/31 07:18:13;;;;;;;3.72;3.33;;;23.50;73.70;;;;;;5048704;28;20195;-69
2022/08/31 07:20:39;;;;;;;4.03;3.25;;;23.50;74.00;;;;;;5032675;28;20245;-69
2022/08/31 07:23:08;;;;;;;3.85;3.53;;;23.50;73.90;;;;;;5032792;28;20194;-69
2022/08/31 07:25:38;;;;;;;3.72;3.35;;;23.50;73.90;;;;;;5032712;28;20172;-69
2022/08/31 07:28:05;;;;;;;3.83;3.45;;;23.50;73.90;;;;;;5032481;28;20212;-69
2022/08/31 07:30:33;;;;;;;3.78;3.47;;;23.50;74.00;;;;;;5031841;28;20302;-69
2022/08/31 07:33:04;;;;;;;5.05;3.75;;;23.40;74.00;;;;;;5032807;28;20225;-69
2022/08/31 07:35:31;;;;;;;3.83;3.42;;;23.50;74.20;;;;;;5016621;28;20187;-70
2022/08/31 07:43:58;;;;;;;5.07;3.72;;;23.50;74.60;;;;;;4995367;28;20203;-70
2022/08/31 07:46:30;;;;;;;3.63;3.33;;;23.50;74.80;;;;;;5023991;28;20200;-70
2022/08/31 07:48:58;;;;;;;6.15;3.50;;;23.50;74.80;;;;;;5032151;28;20276;-70
2022/08/31 07:51:52;;;;;;;4.20;3.90;;;23.50;74.80;;;;;;5032850;28;20198;-70
2022/08/31 07:54:27;;;;;;;3.97;3.67;;;23.50;74.90;;;;;;5032090;28;20195;-70
2022/08/31 07:57:03;;;;;;;5.22;3.83;;;23.50;74.90;;;;;;5032332;28;20670;-70
2022/08/31 07:59:32;;;;;;;3.97;3.58;;;23.50;74.90;;;;;;5031637;28;20598;-70
2022/08/31 08:02:02;;;;;;;3.75;3.35;;;23.50;74.90;;;;;;5015336;28;20663;-71
2022/08/31 08:04:29;;;;;;;3.58;3.28;;;23.50;75.00;;;;;;5032085;28;20613;-70
2022/08/31 08:07:36;;;;;;;3.97;3.67;;;23.40;75.00;;;;;;5030527;28;20635;-70
2022/08/31 08:10:26;;;;;;;3.50;3.20;;;23.40;75.10;;;;;;5029826;28;20237;-70
2022/08/31 08:13:22;;;;;;;3.60;3.30;;;23.40;75.00;;;;;;5035691;28;20172;-70
2022/08/31 08:16:08;;;;;;;3.33;3.13;;;23.50;75.20;;;;;;5032457;28;20191;-70
2022/08/31 08:18:53;;;;;;;3.75;3.45;;;23.40;75.10;;;;;;5031594;28;20317;-70
2022/08/31 08:21:23;;;;;;;6.35;3.45;;;23.40;75.10;;;;;;5032177;28;20190;-70
2022/08/31 08:23:50;;;;;;;4.43;3.25;;;23.40;75.70;;;;;;5031970;28;20317;-71
2022/08/31 08:26:46;;;;;;;3.45;3.15;;;23.50;75.90;;;;;;5031833;28;20192;-70
2022/08/31 08:29:44;;;;;;;3.60;3.30;;;23.50;76.00;;;;;;5031481;28;20207;-70
2022/08/31 08:32:17;;;;;;;3.55;3.35;;;23.40;76.00;;;;;;5031278;28;20183;-70
2022/08/31 08:34:45;;;;;;;3.72;3.42;;;23.40;76.10;;;;;;5031875;28;20651;-70
2022/08/31 08:37:11;;;;;;;3.45;3.17;;;23.40;76.10;;;;;;5014905;28;20265;-71
2022/08/31 08:39:39;;;;;;;3.30;3.00;;;23.50;76.20;;;;;;5030727;28;20211;-70
2022/08/31 08:42:14;;;;;;;3.42;3.10;;;23.40;76.10;;;;;;5027183;28;20168;-70
2022/08/31 08:44:41;;;;;;;3.65;3.35;;;23.40;76.10;;;;;;5011650;28;20195;-70
2022/08/31 08:47:22;;;;;;;3.40;3.03;;;23.40;76.20;;;;;;5028012;28;20222;-70
2022/08/31 08:49:55;;;;;;;3.40;3.10;;;23.40;76.20;;;;;;5010856;28;20215;-70
2022/08/31 08:52:30;;;;;;;3.47;3.17;;;23.40;76.20;;;;;;4995463;28;20214;-70
2022/08/31 08:55:05;;;;;;;3.50;3.20;;;23.40;76.10;;;;;;4995286;28;20168;-71
2022/08/31 08:57:37;;;;;;;3.22;2.92;;;23.40;76.20;;;;;;5027792;28;20670;-71
2022/08/31 09:00:13;;;;;;;3.40;3.10;;;23.40;76.30;;;;;;5031126;28;20211;-70
2022/08/31 09:03:03;;;;;;;3.28;2.97;;;23.40;76.30;;;;;;5031428;28;20175;-71
2022/08/31 09:06:15;;;;;;;2.88;2.67;;;23.40;76.30;;;;;;5017118;28;20179;-70
2022/08/31 09:09:09;;;;;;;3.58;3.28;;;23.40;76.20;;;;;;5030367;28;20214;-70
2022/08/31 09:12:21;;;;;;;2.78;2.58;;;23.40;76.20;;;;;;5032988;28;20171;-70
2022/08/31 09:15:27;;;;;;;3.22;3.03;;;23.40;76.40;;;;;;5031093;28;20179;-71
2022/08/31 09:18:20;;;;;;;3.25;2.95;;;23.40;76.20;;;;;;5046763;28;20191;-70
2022/08/31 09:21:21;;;;;;;3.20;2.95;;;23.40;76.10;;;;;;5031214;28;20203;-70
2022/08/31 09:24:01;;;;;;;3.15;2.95;;;23.40;76.60;;;;;;5031303;28;20187;-71
2022/08/31 09:26:44;;;;;;;3.20;3.00;;;23.40;76.60;;;;;;5034592;28;20254;-71
2022/08/31 09:29:43;;;;;;;3.08;2.55;;;23.40;76.60;;;;;;5034393;28;20217;-71
2022/08/31 09:32:24;;;;;;;3.67;2.60;;;23.40;76.60;;;;;;5044205;28;20274;-71
2022/08/31 09:35:05;;;;;;;3.38;3.00;;;23.40;76.50;;;;;;5036104;28;20213;-70
2022/08/31 09:37:47;;;;;;;2.67;2.47;;;23.40;76.60;;;;;;5034963;28;20183;-70
2022/08/31 09:40:37;;;;;;;3.35;2.50;;;23.40;76.60;;;;;;5017895;28;20298;-71
2022/08/31 09:43:04;;;;;;;2.72;2.53;;;23.40;76.60;;;;;;5034646;28;20168;-71
2022/08/31 09:45:34;;;;;;;2.60;2.40;;;23.40;76.60;;;;;;5035542;28;20189;-71
2022/08/31 09:48:05;;;;;;;2.90;2.70;;;23.40;76.60;;;;;;5034066;28;20569;-71
2022/08/31 09:50:46;;;;;;;2.67;2.47;;;23.40;76.60;;;;;;5035637;28;20571;-71
2022/08/31 09:56:17;;;;;;;2.20;2.10;;;23.40;76.40;;;;;;5034462;28;20179;-70
2022/08/31 09:58:49;;;;;;;2.70;2.47;;;23.40;76.30;;;;;;5017596;28;20190;-71
2022/08/31 10:01:43;;;;;;;2.53;2.38;;;23.40;76.30;;;;;;5035245;28;20195;-71
2022/08/31 10:04:17;;;;;;;2.97;2.45;;;23.40;76.40;;;;;;5015784;28;20184;-71
2022/08/31 10:07:28;;;;;;;2.40;2.30;;;23.40;76.20;;;;;;5014355;28;20179;-71
2022/08/31 10:10:28;;;;;;;2.80;2.60;;;23.40;76.40;;;;;;5014214;28;20314;-71
2022/08/31 10:13:02;;;;;;;2.83;2.63;;;23.40;76.40;;;;;;5031256;28;20204;-70
2022/08/31 10:15:56;;;;;;;2.83;2.63;;;23.50;76.40;;;;;;5026073;28;20262;-71
2022/08/31 10:18:41;;;;;;;2.67;2.47;;;23.40;76.20;;;;;;5033693;28;20199;-71
2022/08/31 10:21:27;;;;;;;2.55;2.35;;;23.50;76.40;;;;;;5032943;28;20262;-71
2022/08/31 10:24:32;;;;;;;3.00;2.70;;;23.50;76.50;;;;;;5029495;28;20211;-71
2022/08/31 10:27:31;;;;;;;2.83;2.58;;;23.40;76.20;;;;;;5016505;28;20280;-71
2022/08/31 10:30:37;;;;;;;2.40;2.20;;;23.50;76.40;;;;;;5032411;28;20211;-70
2022/08/31 10:33:12;;;;;;;2.80;2.60;;;23.50;76.40;;;;;;5024711;28;20283;-71
2022/08/31 10:35:50;;;;;;;2.55;2.35;;;23.50;76.30;;;;;;5032121;28;20242;-71
2022/08/31 10:38:42;;;;;;;2.67;2.50;;;23.50;76.30;;;;;;5048458;28;20175;-70
2022/08/31 10:41:29;;;;;;;2.55;2.35;;;23.50;76.50;;;;;;5029269;28;20628;-71
2022/08/31 10:44:16;;;;;;;3.10;2.50;;;23.50;76.40;;;;;;5012770;28;20719;-71
2022/08/31 10:46:44;;;;;;;2.42;2.25;;;23.50;76.30;;;;;;5014151;28;20189;-70
2022/08/31 10:49:10;;;;;;;3.35;2.45;;;23.50;76.30;;;;;;5032855;28;20214;-69
2022/08/31 10:51:58;;;;;;;2.40;2.20;;;23.50;76.60;;;;;;5032693;28;20179;-71
2022/08/31 10:54:48;;;;;;;2.90;2.60;;;23.50;76.50;;;;;;5032439;28;20183;-71
2022/08/31 10:57:32;;;;;;;2.78;2.58;;;23.50;76.60;;;;;;5033427;28;20183;-70
2022/08/31 11:03:14;;;;;;;2.20;2.00;;;23.50;76.70;;;;;;5032001;28;20187;-71
2022/08/31 11:06:02;;;;;;;2.65;2.45;;;23.50;76.70;;;;;;5033769;28;20636;-71
2022/08/31 11:09:06;;;;;;;2.72;2.53;;;23.50;76.70;;;;;;5031267;28;20274;-70
2022/08/31 11:11:46;;;;;;;2.67;2.47;;;23.50;77.00;;;;;;5032114;28;20202;-71
2022/08/31 11:14:43;;;;;;;2.38;2.25;;;23.50;76.70;;;;;;5032316;28;20205;-71
2022/08/31 11:17:31;;;;;;;3.03;2.70;;;23.50;76.70;;;;;;4985101;28;1378058;-71
2022/08/31 11:20:25;;;;;;;2.60;2.40;;;23.50;76.70;;;;;;5032474;28;20213;-70
2022/08/31 11:23:10;;;;;;;2.85;2.65;;;23.60;76.90;;;;;;5010215;28;20574;-71
2022/08/31 11:26:25;;;;;;;3.08;2.60;;;23.60;76.80;;;;;;5049258;28;20203;-71
2022/08/31 11:29:19;;;;;;;2.75;2.55;;;23.60;76.80;;;;;;4980599;28;20228;-71
2022/08/31 11:31:46;;;;;;;2.90;2.40;;;23.60;76.80;;;;;;5032662;28;20211;-70
2022/08/31 11:34:24;;;;;;;2.80;2.60;;;23.60;76.80;;;;;;5029988;28;20199;-71
2022/08/31 11:37:01;;;;;;;3.45;2.70;;;23.60;76.80;;;;;;5032574;28;20243;-71
2022/08/31 11:39:34;;;;;;;2.53;2.38;;;23.60;76.80;;;;;;5033138;28;20191;-71
2022/08/31 11:42:22;;;;;;;2.80;2.60;;;23.60;76.80;;;;;;5033667;28;20203;-71
2022/08/31 11:45:25;;;;;;;3.17;2.60;;;23.60;76.80;;;;;;5032809;28;20225;-70
2022/08/31 11:47:53;;;;;;;2.80;2.60;;;23.60;76.80;;;;;;5027113;28;20257;-71
2022/08/31 11:50:22;;;;;;;2.90;2.70;;;23.60;76.80;;;;;;5033026;28;20218;-71
2022/08/31 11:52:54;;;;;;;2.67;2.47;;;23.60;76.80;;;;;;5032155;28;20179;-70
2022/08/31 11:56:02;;;;;;;2.88;2.67;;;23.60;76.80;;;;;;5032427;28;20596;-70
2022/08/31 11:58:37;;;;;;;2.67;2.47;;;23.60;76.90;;;;;;4994479;28;20203;-71
2022/08/31 12:01:34;;;;;;;3.03;2.83;;;23.60;77.00;;;;;;5026579;28;20198;-70
2022/08/31 12:04:03;;;;;;;3.13;2.92;;;23.60;77.00;;;;;;5032129;28;20202;-70
2022/08/31 12:06:38;;;;;;;3.03;2.72;;;23.60;77.00;;;;;;5033179;28;20190;-70
2022/08/31 12:09:21;;;;;;;3.28;2.97;;;23.60;77.40;;;;;;5015091;28;20234;-70
2022/08/31 12:12:06;;;;;;;2.70;2.50;;;23.60;77.40;;;;;;5032150;28;20563;-70
2022/08/31 12:15:12;;;;;;;3.00;2.80;;;23.60;77.30;;;;;;5015482;28;20360;-70
2022/08/31 12:18:03;;;;;;;4.47;2.90;;;23.60;77.40;;;;;;5032694;28;20254;-70
2022/08/31 12:23:57;;;;;;;3.53;3.22;;;23.60;77.30;;;;;;5031567;28;20259;-70
2022/08/31 12:27:16;;;;;;;3.17;2.88;;;23.60;77.30;;;;;;5031770;28;20634;-70
2022/08/31 12:29:42;;;;;;;3.40;2.85;;;23.60;77.50;;;;;;5030981;28;20742;-70
2022/08/31 12:32:36;;;;;;;3.20;2.90;;;23.60;77.40;;;;;;5031360;28;20187;-71
2022/08/31 12:35:18;;;;;;;3.00;2.80;;;23.60;77.80;;;;;;5031803;28;20266;-70
2022/08/31 12:38:14;;;;;;;3.13;2.83;;;23.60;77.90;;;;;;5032511;28;20240;-70
2022/08/31 12:40:53;;;;;;;3.10;2.90;;;23.60;78.00;;;;;;5031307;28;20232;-70
2022/08/31 12:43:26;;;;;;;3.08;2.78;;;23.60;77.80;;;;;;5032557;28;20217;-70
2022/08/31 12:46:21;;;;;;;4.20;3.15;;;23.60;77.70;;;;;;5014894;28;20247;-70
2022/08/31 12:49:17;;;;;;;4.03;3.15;;;23.60;77.90;;;;;;5031510;28;20207;-70
2022/08/31 12:52:04;;;;;;;3.47;2.92;;;23.60;77.70;;;;;;5015104;28;20187;-71
2022/08/31 12:55:31;;;;;;;2.83;2.63;;;23.60;77.90;;;;;;5047663;28;20168;-71
2022/08/31 12:58:30;;;;;;;3.50;3.20;;;23.60;77.90;;;;;;5031234;28;20258;-71
2022/08/31 13:01:11;;;;;;;3.30;3.08;;;23.60;78.00;;;;;;5031021;28;20238;-71
2022/08/31 13:03:48;;;;;;;3.30;2.95;;;23.60;78.00;;;;;;5031148;28;20184;-71
2022/08/31 13:06:25;;;;;;;3.97;3.13;;;23.60;77.60;;;;;;5031413;28;20182;-71
2022/08/31 13:08:53;;;;;;;3.45;3.15;;;23.60;77.60;;;;;;5030281;28;20249;-71
2022/08/31 13:11:26;;;;;;;4.00;3.58;;;23.60;77.50;;;;;;5031384;28;20222;-71
2022/08/31 13:14:19;;;;;;;3.92;3.47;;;23.60;77.50;;;;;;5032150;28;20274;-71
2022/08/31 13:16:49;;;;;;;3.42;3.13;;;23.60;77.90;;;;;;5031916;28;20195;-70
2022/08/31 13:19:29;;;;;;;3.70;3.40;;;23.60;77.80;;;;;;5013775;28;20225;-70
2022/08/31 13:22:06;;;;;;;3.50;3.20;;;23.70;77.70;;;;;;5014607;28;20183;-70
2022/08/31 13:24:40;;;;;;;3.20;2.90;;;23.70;77.50;;;;;;5031821;28;20178;-71
2022/08/31 13:27:08;;;;;;;4.10;3.30;;;23.70;78.70;;;;;;5014633;28;20560;-70
2022/08/31 13:29:42;;;;;;;4.57;3.35;;;23.70;77.60;;;;;;5030100;28;20206;-71
2022/08/31 13:32:10;;;;;;;4.30;3.60;;;23.60;77.50;;;;;;5030705;28;20182;-70
2022/08/31 13:34:42;;;;;;;3.58;3.28;;;23.70;77.70;;;;;;5030668;28;20181;-70
2022/08/31 13:37:20;;;;;;;3.70;3.40;;;23.70;77.70;;;;;;5030697;28;20183;-70
2022/08/31 13:39:46;;;;;;;3.17;2.88;;;23.70;77.60;;;;;;5015144;28;20219;-72
2022/08/31 13:42:41;;;;;;;3.78;3.35;;;23.70;77.60;;;;;;5031907;28;20179;-71
2022/08/31 13:45:23;;;;;;;3.35;3.03;;;23.70;77.50;;;;;;5030955;28;20179;-71
2022/08/31 13:48:19;;;;;;;3.50;3.20;;;23.70;76.90;;;;;;5030629;28;20227;-71
2022/08/31 13:50:56;;;;;;;4.18;3.70;;;23.70;76.90;;;;;;5026881;28;20254;-71
2022/08/31 13:54:02;;;;;;;3.65;3.22;;;23.70;77.00;;;;;;5031398;28;20183;-71